createdAt,value
2023-04-12T00:00:46.267Z,100309.38
2023-04-12T00:03:21.544Z,100307.69
2023-04-12T00:05:56.690Z,100304.38
2023-04-12T00:08:27.446Z,100309.47
2023-04-12T00:10:57.840Z,100311.75
2023-04-12T00:13:33.203Z,100314.25
2023-04-12T00:16:03.607Z,100312.81
2023-04-12T00:18:34.184Z,100313.88
2023-04-12T00:21:07.695Z,100316.97
2023-04-12T00:23:48.715Z,100318.31
2023-04-12T00:26:34.394Z,100321.84
2023-04-12T00:29:14.542Z,100317.72
2023-04-12T00:35:11.748Z,100323.66
2023-04-12T00:37:43.471Z,100313.66
2023-04-12T00:40:15.475Z,100324.00
2023-04-12T00:42:45.307Z,100328.44
2023-04-12T00:45:16.896Z,100333.88
2023-04-12T00:47:45.386Z,100337.56
2023-04-12T00:50:15.858Z,100340.19
2023-04-12T00:52:45.359Z,100337.75
2023-04-12T00:55:20.306Z,100340.91
2023-04-12T00:57:49.384Z,100348.88
2023-04-12T01:00:19.724Z,100353.25
2023-04-12T01:02:51.494Z,100350.09
2023-04-12T01:05:24.544Z,100357.53
2023-04-12T01:08:21.264Z,100350.44
2023-04-12T01:10:58.473Z,100357.06
2023-04-12T01:14:13.577Z,100354.34
2023-04-12T01:16:52.533Z,100354.47
2023-04-12T01:19:36.810Z,100357.97
2023-04-12T01:22:16.068Z,100359.72
2023-04-12T01:24:59.546Z,100363.59
2023-04-12T01:27:41.376Z,100371.69
2023-04-12T01:30:15.685Z,100364.75
2023-04-12T01:32:49.078Z,100368.72
2023-04-12T01:35:21.494Z,100362.41
2023-04-12T01:37:51.356Z,100367.28
2023-04-12T01:40:22.175Z,100364.16
2023-04-12T01:42:51.441Z,100365.06
2023-04-12T01:45:22.008Z,100371.97
2023-04-12T01:47:51.624Z,100364.69
2023-04-12T01:50:27.039Z,100374.75
2023-04-12T01:53:09.553Z,100382.84
2023-04-12T01:55:41.980Z,100383.84
2023-04-12T01:58:17.695Z,100385.13
2023-04-12T02:00:49.107Z,100377.38
2023-04-12T02:03:20.051Z,100380.75
2023-04-12T02:05:50.631Z,100376.41
2023-04-12T02:08:23.606Z,100381.06
2023-04-12T02:10:53.650Z,100369.81
2023-04-12T02:13:23.362Z,100372.97
2023-04-12T02:15:56.346Z,100376.28
2023-04-12T02:18:25.199Z,100372.06
2023-04-12T02:20:54.806Z,100368.72
2023-04-12T02:23:24.799Z,100373.34
2023-04-12T02:25:53.782Z,100370.88
2023-04-12T02:28:24.388Z,100379.94
2023-04-12T02:30:55.506Z,100372.06
2023-04-12T02:33:29.782Z,100369.94
2023-04-12T02:36:05.074Z,100368.22
2023-04-12T02:38:33.564Z,100364.84
2023-04-12T02:41:04.718Z,100366.78
2023-04-12T02:43:35.049Z,100361.25
2023-04-12T02:46:09.265Z,100362.69
2023-04-12T02:48:45.093Z,100362.09
2023-04-12T02:51:15.678Z,100361.28
2023-04-12T02:53:48.787Z,100359.84
2023-04-12T02:56:23.007Z,100356.72
2023-04-12T02:58:58.254Z,100355.50
2023-04-12T03:01:52.840Z,100346.19
2023-04-12T03:04:31.425Z,100345.81
2023-04-12T03:07:03.421Z,100347.69
2023-04-12T03:09:40.664Z,100348.41
2023-04-12T03:12:09.531Z,100347.00
2023-04-12T03:14:45.116Z,100345.59
2023-04-12T03:17:13.587Z,100342.31
2023-04-12T03:19:44.407Z,100334.66
2023-04-12T03:22:13.306Z,100340.06
2023-04-12T03:24:48.383Z,100339.03
2023-04-12T03:27:21.789Z,100325.53
2023-04-12T03:29:53.215Z,100325.53
2023-04-12T03:32:25.952Z,100325.53
2023-04-12T03:35:00.343Z,100328.44
2023-04-12T03:37:32.479Z,100322.06
2023-04-12T03:40:04.348Z,100334.84
2023-04-12T03:42:34.031Z,100331.75
2023-04-12T03:45:13.277Z,100326.16
2023-04-12T03:47:45.752Z,100322.63
2023-04-12T03:50:17.717Z,100322.41
2023-04-12T03:52:54.119Z,100312.28
2023-04-12T03:55:29.467Z,100316.19
2023-04-12T03:58:01.130Z,100314.56
2023-04-12T04:00:35.340Z,100317.44
2023-04-12T04:03:09.984Z,100305.44
2023-04-12T04:06:04.329Z,100304.41
2023-04-12T04:08:34.764Z,100310.34
2023-04-12T04:11:04.267Z,100306.81
2023-04-12T04:13:42.106Z,100311.97
2023-04-12T04:16:19.400Z,100303.84
2023-04-12T04:18:49.082Z,100306.72
2023-04-12T04:21:23.303Z,100300.69
2023-04-12T04:24:00.579Z,100304.75
2023-04-12T04:26:35.141Z,100304.00
2023-04-12T04:29:14.039Z,100295.16
2023-04-12T04:31:43.439Z,100299.50
2023-04-12T04:34:12.899Z,100291.78
2023-04-12T04:36:45.528Z,100289.53
2023-04-12T04:39:19.497Z,100295.53
2023-04-12T04:41:55.459Z,100297.06
2023-04-12T04:44:36.761Z,100294.16
2023-04-12T04:47:09.064Z,100292.63
2023-04-12T04:49:39.918Z,100288.91
2023-04-12T04:52:29.754Z,100286.63
2023-04-12T04:55:06.909Z,100282.84
2023-04-12T04:57:41.610Z,100293.56
2023-04-12T05:00:12.642Z,100284.19
2023-04-12T05:02:46.115Z,100286.81
2023-04-12T05:05:24.736Z,100271.88
2023-04-12T05:08:02.355Z,100274.13
2023-04-12T05:10:34.369Z,100266.72
2023-04-12T05:13:05.011Z,100264.25
2023-04-12T05:15:34.367Z,100268.22
2023-04-12T05:18:03.400Z,100269.09
2023-04-12T05:20:32.479Z,100267.06
2023-04-12T05:23:03.487Z,100256.13
2023-04-12T05:25:33.747Z,100259.06
2023-04-12T05:28:15.179Z,100260.00
2023-04-12T05:30:45.849Z,100253.16
2023-04-12T05:33:19.443Z,100250.56
2023-04-12T05:35:51.458Z,100247.28
2023-04-12T05:38:21.159Z,100244.13
2023-04-12T05:40:55.453Z,100248.13
2023-04-12T05:43:29.561Z,100252.53
2023-04-12T05:46:00.273Z,100250.13
2023-04-12T05:48:30.698Z,100250.34
2023-04-12T05:51:04.334Z,100244.66
2023-04-12T05:53:33.582Z,100248.38
2023-04-12T05:56:06.791Z,100245.00
2023-04-12T05:58:38.038Z,100248.13
2023-04-12T06:01:07.330Z,100239.59
2023-04-12T06:03:36.853Z,100239.63
2023-04-12T06:06:11.609Z,100236.00
2023-04-12T06:08:41.416Z,100236.16
2023-04-12T06:11:12.572Z,100235.50
2023-04-12T06:13:43.905Z,100224.59
2023-04-12T06:16:14.473Z,100229.28
2023-04-12T06:18:43.405Z,100226.66
2023-04-12T06:21:12.692Z,100229.34
2023-04-12T06:23:43.795Z,100228.31
2023-04-12T06:26:12.917Z,100226.19
2023-04-12T06:28:43.251Z,100227.72
2023-04-12T06:31:12.965Z,100225.44
2023-04-12T06:33:43.759Z,100219.03
2023-04-12T06:36:15.411Z,100226.34
2023-04-12T06:38:44.902Z,100213.28
2023-04-12T06:41:13.619Z,100210.28
2023-04-12T06:43:42.572Z,100203.97
2023-04-12T06:46:12.550Z,100201.19
2023-04-12T06:48:42.173Z,100198.31
2023-04-12T06:51:12.630Z,100196.50
2023-04-12T06:53:42.124Z,100197.31
2023-04-12T06:56:11.755Z,100188.63
2023-04-12T06:58:42.827Z,100186.53
2023-04-12T07:01:12.620Z,100183.69
2023-04-12T07:03:42.003Z,100179.47
2023-04-12T07:06:24.348Z,100178.03
2023-04-12T07:08:53.954Z,100171.84
2023-04-12T07:11:23.777Z,100171.44
2023-04-12T07:13:52.853Z,100163.41
2023-04-12T07:16:21.691Z,100158.69
2023-04-12T07:18:51.290Z,100162.69
2023-04-12T07:21:19.817Z,100160.75
2023-04-12T07:23:51.826Z,100160.34
2023-04-12T07:26:22.258Z,100158.34
2023-04-12T07:28:51.732Z,100168.50
2023-04-12T07:31:21.180Z,100161.25
2023-04-12T07:33:50.276Z,100155.47
2023-04-12T07:36:21.829Z,100164.69
2023-04-12T07:38:56.147Z,100153.19
2023-04-12T07:41:25.339Z,100150.94
2023-04-12T07:43:53.671Z,100150.22
2023-04-12T07:46:23.711Z,100157.03
2023-04-12T07:48:53.192Z,100149.59
2023-04-12T07:51:21.946Z,100158.06
2023-04-12T07:53:51.569Z,100156.84
2023-04-12T07:56:20.293Z,100152.91
2023-04-12T07:58:49.811Z,100163.47
2023-04-12T08:01:19.153Z,100156.19
2023-04-12T08:03:48.932Z,100147.34
2023-04-12T08:06:18.235Z,100153.03
2023-04-12T08:08:49.010Z,100152.53
2023-04-12T08:11:17.533Z,100156.88
2023-04-12T08:13:47.405Z,100147.59
2023-04-12T08:16:17.474Z,100142.88
2023-04-12T08:18:46.861Z,100152.19
2023-04-12T08:21:15.714Z,100153.19
2023-04-12T08:23:44.779Z,100145.75
2023-04-12T08:26:13.258Z,100156.66
2023-04-12T08:28:42.449Z,100148.63
2023-04-12T08:31:12.913Z,100146.47
2023-04-12T08:33:42.214Z,100153.53
2023-04-12T08:36:12.035Z,100145.25
2023-04-12T08:38:46.145Z,100150.09
2023-04-12T08:41:16.815Z,100141.00
2023-04-12T08:43:47.226Z,100155.06
2023-04-12T08:46:17.120Z,100151.16
2023-04-12T08:48:48.978Z,100151.63
2023-04-12T08:51:19.522Z,100159.63
2023-04-12T08:53:49.313Z,100160.13
2023-04-12T08:56:18.093Z,100164.00
2023-04-12T08:58:52.004Z,100160.97
2023-04-12T09:01:24.620Z,100164.69
2023-04-12T09:03:53.681Z,100159.25
2023-04-12T09:06:24.600Z,100170.25
2023-04-12T09:08:57.974Z,100166.09
2023-04-12T09:11:31.678Z,100165.81
2023-04-12T09:14:02.077Z,100171.41
2023-04-12T09:16:37.321Z,100168.91
2023-04-12T09:19:07.245Z,100171.41
2023-04-12T09:21:37.273Z,100175.59
2023-04-12T09:24:14.836Z,100169.13
2023-04-12T09:26:43.727Z,100164.13
2023-04-12T09:29:30.429Z,100162.63
2023-04-12T09:32:05.321Z,100161.94
2023-04-12T09:34:38.021Z,100162.34
2023-04-12T09:37:17.836Z,100156.38
2023-04-12T09:39:48.114Z,100161.63
2023-04-12T09:42:32.556Z,100161.19
2023-04-12T09:45:03.972Z,100160.22
2023-04-12T09:47:42.219Z,100159.81
2023-04-12T09:50:29.790Z,100158.31
2023-04-12T09:53:06.117Z,100165.28
2023-04-12T09:55:35.786Z,100159.97
2023-04-12T09:58:06.356Z,100160.38
2023-04-12T10:00:37.677Z,100157.47
2023-04-12T10:03:08.553Z,100159.09
2023-04-12T10:05:41.637Z,100171.09
2023-04-12T10:08:14.079Z,100163.94
2023-04-12T10:10:47.983Z,100160.50
2023-04-12T10:13:19.631Z,100165.66
2023-04-12T10:15:51.971Z,100168.28
2023-04-12T10:18:21.090Z,100168.75
2023-04-12T10:20:51.511Z,100175.16
2023-04-12T10:23:21.707Z,100178.53
2023-04-12T10:25:52.117Z,100180.97
2023-04-12T10:28:24.976Z,100171.69
2023-04-12T10:30:59.576Z,100188.06
2023-04-12T10:33:33.908Z,100184.13
2023-04-12T10:36:12.751Z,100186.81
2023-04-12T10:39:10.611Z,100195.34
2023-04-12T10:41:40.353Z,100188.66
2023-04-12T10:44:27.888Z,100183.97
2023-04-12T10:47:00.070Z,100196.09
2023-04-12T10:49:35.700Z,100193.75
2023-04-12T10:52:11.556Z,100193.31
2023-04-12T10:54:40.976Z,100199.03
2023-04-12T10:57:45.715Z,100198.31
2023-04-12T11:00:16.992Z,100196.34
2023-04-12T11:03:13.488Z,100198.78
2023-04-12T11:06:19.990Z,100195.25
2023-04-12T11:09:41.716Z,100196.53
2023-04-12T11:12:11.237Z,100195.63
2023-04-12T11:14:52.432Z,100202.53
2023-04-12T11:17:30.103Z,100210.81
2023-04-12T11:20:02.624Z,100199.63
2023-04-12T11:22:34.256Z,100202.75
2023-04-12T11:25:04.812Z,100204.56
2023-04-12T11:27:33.538Z,100202.91
2023-04-12T11:30:02.962Z,100200.84
2023-04-12T11:32:36.234Z,100203.97
2023-04-12T11:35:05.645Z,100202.72
2023-04-12T11:37:36.920Z,100210.81
2023-04-12T11:40:07.033Z,100212.16
2023-04-12T11:42:37.180Z,100215.03
2023-04-12T11:45:12.079Z,100208.16
2023-04-12T11:47:53.562Z,100213.91
2023-04-12T11:50:33.018Z,100222.69
2023-04-12T11:53:18.597Z,100215.47
2023-04-12T11:55:50.714Z,100226.84
2023-04-12T11:58:24.885Z,100225.19
2023-04-12T12:00:54.197Z,100221.78
2023-04-12T12:03:24.246Z,100228.72
2023-04-12T12:05:54.556Z,100220.06
2023-04-12T12:08:25.299Z,100225.13
2023-04-12T12:11:06.415Z,100225.97
2023-04-12T12:13:47.647Z,100226.22
2023-04-12T12:16:18.156Z,100220.44
2023-04-12T12:18:52.527Z,100223.78
2023-04-12T12:21:22.356Z,100225.09
2023-04-12T12:23:52.623Z,100216.63
2023-04-12T12:26:30.066Z,100220.00
2023-04-12T12:29:02.265Z,100214.19
2023-04-12T12:31:31.785Z,100219.63
2023-04-12T12:34:04.176Z,100215.88
2023-04-12T12:36:37.092Z,100210.97
2023-04-12T12:39:12.041Z,100205.81
2023-04-12T12:41:42.613Z,100204.50
2023-04-12T12:44:12.913Z,100201.75
2023-04-12T12:49:13.651Z,100195.00
2023-04-12T12:51:43.921Z,100197.03
2023-04-12T12:54:14.311Z,100190.94
2023-04-12T12:56:43.768Z,100186.38
2023-04-12T12:59:12.795Z,100186.47
2023-04-12T13:01:42.243Z,100182.03
2023-04-12T13:04:11.702Z,100184.97
2023-04-12T13:06:42.934Z,100185.09
2023-04-12T13:09:11.747Z,100179.25
2023-04-12T13:11:43.589Z,100180.00
2023-04-12T13:14:13.491Z,100182.69
2023-04-12T13:16:42.695Z,100183.44
2023-04-12T13:19:12.937Z,100186.47
2023-04-12T13:21:41.975Z,100190.84
2023-04-12T13:24:11.473Z,100185.88
2023-04-12T13:26:41.541Z,100179.38
2023-04-12T13:29:09.874Z,100185.81
2023-04-12T13:31:39.646Z,100183.50
2023-04-12T13:34:09.476Z,100184.25
2023-04-12T13:36:38.226Z,100186.88
2023-04-12T13:39:09.561Z,100180.44
2023-04-12T13:41:38.800Z,100176.72
2023-04-12T13:44:09.324Z,100177.41
2023-04-12T13:46:40.106Z,100177.13
2023-04-12T13:49:09.321Z,100173.47
2023-04-12T13:51:38.168Z,100175.19
2023-04-12T13:54:09.233Z,100174.13
2023-04-12T13:56:38.657Z,100171.97
2023-04-12T13:59:09.103Z,100165.03
2023-04-12T14:01:37.711Z,100165.91
2023-04-12T14:04:08.922Z,100160.81
2023-04-12T14:06:39.905Z,100158.19
2023-04-12T14:09:08.712Z,100156.19
2023-04-12T14:11:49.308Z,100165.50
2023-04-12T14:15:21.756Z,100158.97
2023-04-12T14:17:51.884Z,100159.97
2023-04-12T14:20:21.379Z,100166.97
2023-04-12T14:22:50.103Z,100166.22
2023-04-12T14:25:19.927Z,100160.75
2023-04-12T14:27:49.378Z,100156.94
2023-04-12T14:30:19.098Z,100165.22
2023-04-12T14:32:48.653Z,100154.88
2023-04-12T14:35:18.631Z,100155.94
2023-04-12T14:37:48.261Z,100165.88
2023-04-12T14:40:19.659Z,100158.53
2023-04-12T14:42:48.490Z,100152.81
2023-04-12T14:45:17.970Z,100162.06
2023-04-12T14:47:48.721Z,100163.72
2023-04-12T14:50:18.063Z,100163.41
2023-04-12T14:52:47.777Z,100163.44
2023-04-12T14:55:20.297Z,100165.03
2023-04-12T14:57:49.840Z,100165.91
2023-04-12T15:00:21.108Z,100160.59
2023-04-12T15:02:50.530Z,100151.16
2023-04-12T15:05:20.175Z,100146.88
2023-04-12T15:07:50.252Z,100157.53
2023-04-12T15:10:20.502Z,100160.44
2023-04-12T15:12:49.584Z,100145.44
2023-04-12T15:15:18.482Z,100138.06
2023-04-12T15:17:49.978Z,100137.00
2023-04-12T15:20:20.111Z,100137.25
2023-04-12T15:22:49.416Z,100143.78
2023-04-12T15:25:18.530Z,100143.53
2023-04-12T15:27:49.195Z,100146.25
2023-04-12T15:30:18.389Z,100153.25
2023-04-12T15:32:48.254Z,100146.09
2023-04-12T15:35:26.657Z,100134.53
2023-04-12T15:37:59.725Z,100126.16
2023-04-12T15:40:30.818Z,100134.66
2023-04-12T15:43:00.922Z,100120.75
2023-04-12T15:45:31.745Z,100114.41
2023-04-12T15:48:02.596Z,100116.16
2023-04-12T15:50:33.229Z,100107.09
2023-04-12T15:53:04.921Z,100104.69
2023-04-12T15:55:33.897Z,100103.13
2023-04-12T15:58:06.438Z,100100.22
2023-04-12T16:00:40.409Z,100104.19
2023-04-12T16:03:10.132Z,100091.91
2023-04-12T16:05:47.615Z,100104.59
2023-04-12T16:08:17.650Z,100107.13
2023-04-12T16:10:47.454Z,100103.75
2023-04-12T16:13:17.347Z,100094.16
2023-04-12T16:15:49.293Z,100088.94
2023-04-12T16:18:18.325Z,100098.31
2023-04-12T16:20:49.044Z,100096.81
2023-04-12T16:23:18.272Z,100083.63
2023-04-12T16:25:47.984Z,100077.91
2023-04-12T16:28:18.565Z,100091.50
2023-04-12T16:30:47.985Z,100077.81
2023-04-12T16:33:17.265Z,100084.81
2023-04-12T16:35:46.095Z,100070.28
2023-04-12T16:38:17.679Z,100073.72
2023-04-12T16:40:46.949Z,100069.41
2023-04-12T16:43:17.764Z,100077.63
2023-04-12T16:45:49.353Z,100075.59
2023-04-12T16:48:17.956Z,100056.00
2023-04-12T16:50:49.260Z,100043.44
2023-04-12T16:53:18.173Z,100040.91
2023-04-12T16:55:48.643Z,100037.34
2023-04-12T16:58:19.729Z,100034.72
2023-04-12T17:00:49.445Z,100041.03
2023-04-12T17:03:19.369Z,100034.94
2023-04-12T17:05:49.593Z,100030.84
2023-04-12T17:08:18.088Z,100022.94
2023-04-12T17:10:47.805Z,100018.44
2023-04-12T17:13:20.046Z,100021.50
2023-04-12T17:15:49.473Z,100001.41
2023-04-12T17:18:17.973Z,99994.44
2023-04-12T17:20:48.070Z,100004.22
2023-04-12T17:23:17.641Z,100004.13
2023-04-12T17:25:48.296Z,99982.94
2023-04-12T17:28:17.457Z,99991.06
2023-04-12T17:30:46.663Z,99982.31
2023-04-12T17:33:18.828Z,99971.81
2023-04-12T17:35:48.795Z,99981.69
2023-04-12T17:38:17.809Z,99965.44
2023-04-12T17:40:46.974Z,99970.06
2023-04-12T17:43:15.893Z,99969.72
2023-04-12T17:45:45.438Z,99960.47
2023-04-12T17:48:16.082Z,99966.63
2023-04-12T17:50:46.298Z,99960.16
2023-04-12T17:53:15.801Z,99952.41
2023-04-12T17:55:45.291Z,99950.09
2023-04-12T17:58:15.836Z,99947.06
2023-04-12T18:00:45.317Z,99947.72
2023-04-12T18:03:16.135Z,99935.88
2023-04-12T18:05:46.739Z,99930.88
2023-04-12T18:08:17.556Z,99939.22
2023-04-12T18:10:47.704Z,99927.53
2023-04-12T18:13:16.753Z,99925.19
2023-04-12T18:15:46.231Z,99915.22
2023-04-12T18:18:15.633Z,99920.53
2023-04-12T18:20:44.427Z,99919.06
2023-04-12T18:23:13.434Z,99916.66
2023-04-12T18:25:43.233Z,99911.41
2023-04-12T18:28:12.099Z,99911.66
2023-04-12T18:30:41.761Z,99899.91
2023-04-12T18:33:11.987Z,99897.66
2023-04-12T18:35:41.756Z,99879.25
2023-04-12T18:38:10.102Z,99886.66
2023-04-12T18:40:40.240Z,99894.78
2023-04-12T18:43:09.660Z,99883.88
2023-04-12T18:45:42.258Z,99883.72
2023-04-12T18:48:12.052Z,99877.06
2023-04-12T18:50:41.935Z,99882.44
2023-04-12T18:53:11.856Z,99877.72
2023-04-12T18:55:40.768Z,99871.94
2023-04-12T18:58:10.009Z,99874.81
2023-04-12T19:00:40.355Z,99876.88
2023-04-12T19:03:09.856Z,99859.09
2023-04-12T19:05:39.602Z,99861.53
2023-04-12T19:08:10.606Z,99855.81
2023-04-12T19:10:41.356Z,99854.38
2023-04-12T19:13:09.940Z,99856.53
2023-04-12T19:15:38.343Z,99852.34
2023-04-12T19:18:13.990Z,99858.22
2023-04-12T19:20:42.925Z,99846.47
2023-04-12T19:23:11.829Z,99846.88
2023-04-12T19:25:40.891Z,99840.78
2023-04-12T19:28:11.571Z,99833.38
2023-04-12T19:30:41.612Z,99828.78
2023-04-12T19:33:11.756Z,99826.56
2023-04-12T19:35:42.325Z,99803.00
2023-04-12T19:38:11.886Z,99806.16
2023-04-12T19:40:41.767Z,99802.78
2023-04-12T19:43:10.280Z,99800.75
2023-04-12T19:45:40.518Z,99798.31
2023-04-12T19:48:09.712Z,99792.69
2023-04-12T19:50:38.343Z,99785.75
2023-04-12T19:53:09.133Z,99791.28
2023-04-12T19:55:38.959Z,99785.69
2023-04-12T19:58:09.141Z,99784.44
2023-04-12T20:00:41.528Z,99768.75
2023-04-12T20:03:10.848Z,99774.59
2023-04-12T20:05:43.787Z,99769.56
2023-04-12T20:08:12.578Z,99767.78
2023-04-12T20:10:42.404Z,99778.31
2023-04-12T20:13:15.883Z,99771.06
2023-04-12T20:15:45.094Z,99769.75
2023-04-12T20:18:14.008Z,99767.31
2023-04-12T20:20:45.436Z,99764.44
2023-04-12T20:23:14.360Z,99773.38
2023-04-12T20:25:44.107Z,99759.34
2023-04-12T20:28:13.199Z,99756.28
2023-04-12T20:30:45.561Z,99760.97
2023-04-12T20:33:15.924Z,99751.41
2023-04-12T20:35:45.416Z,99738.59
2023-04-12T20:38:14.643Z,99747.00
2023-04-12T20:40:45.616Z,99740.84
2023-04-12T20:43:14.297Z,99738.59
2023-04-12T20:45:43.804Z,99745.59
2023-04-12T20:48:12.406Z,99736.88
2023-04-12T20:50:43.726Z,99733.22
2023-04-12T20:53:16.540Z,99729.44
2023-04-12T20:55:46.379Z,99726.09
2023-04-12T20:58:15.491Z,99728.28
2023-04-12T21:00:44.868Z,99719.72
2023-04-12T21:03:13.758Z,99731.78
2023-04-12T21:05:43.564Z,99728.88
2023-04-12T21:08:12.739Z,99723.75
2023-04-12T21:10:43.000Z,99737.19
2023-04-12T21:13:13.159Z,99728.78
2023-04-12T21:15:44.286Z,99732.47
2023-04-12T21:18:13.942Z,99733.25
2023-04-12T21:20:43.025Z,99727.41
2023-04-12T21:23:14.028Z,99733.81
2023-04-12T21:25:44.396Z,99724.28
2023-04-12T21:28:13.521Z,99724.44
2023-04-12T21:30:46.343Z,99714.41
2023-04-12T21:33:17.384Z,99724.63
2023-04-12T21:35:46.820Z,99720.63
2023-04-12T21:38:17.792Z,99721.59
2023-04-12T21:40:48.036Z,99719.06
2023-04-12T21:43:18.414Z,99725.81
2023-04-12T21:45:50.087Z,99726.56
2023-04-12T21:48:20.163Z,99728.69
2023-04-12T21:50:49.588Z,99725.03
2023-04-12T21:53:18.337Z,99732.19
2023-04-12T21:55:50.150Z,99724.03
2023-04-12T21:58:20.123Z,99725.16
2023-04-12T22:00:49.453Z,99727.72
2023-04-12T22:03:19.134Z,99726.09
2023-04-12T22:06:02.886Z,99720.31
2023-04-12T22:08:33.521Z,99725.19
2023-04-12T22:11:03.105Z,99718.47
2023-04-12T22:13:32.285Z,99724.69
2023-04-12T22:16:03.035Z,99721.47
2023-04-12T22:18:32.578Z,99724.16
2023-04-12T22:21:05.374Z,99726.09
2023-04-12T22:23:35.852Z,99722.53
2023-04-12T22:26:10.374Z,99727.53
2023-04-12T22:28:53.529Z,99727.25
2023-04-12T22:31:24.446Z,99723.66
2023-04-12T22:33:55.755Z,99725.28
2023-04-12T22:36:29.613Z,99723.97
2023-04-12T22:38:58.696Z,99726.22
2023-04-12T22:41:29.311Z,99734.56
2023-04-12T22:44:02.472Z,99739.16
2023-04-12T22:46:33.408Z,99737.16
2023-04-12T22:49:02.854Z,99733.06
2023-04-12T22:51:33.784Z,99738.78
2023-04-12T22:54:03.975Z,99741.88
2023-04-12T22:56:33.457Z,99738.16
2023-04-12T22:59:02.361Z,99735.97
2023-04-12T23:01:32.348Z,99736.63
2023-04-12T23:04:03.817Z,99739.38
2023-04-12T23:06:32.350Z,99737.72
2023-04-12T23:09:02.255Z,99733.88
2023-04-12T23:11:31.937Z,99737.06
2023-04-12T23:14:02.280Z,99748.34
2023-04-12T23:16:34.715Z,99741.84
2023-04-12T23:19:07.302Z,99743.38
2023-04-12T23:21:37.087Z,99746.13
2023-04-12T23:24:06.951Z,99745.28
2023-04-12T23:26:37.577Z,99749.78
2023-04-12T23:29:06.613Z,99744.59
2023-04-12T23:31:37.243Z,99747.03
2023-04-12T23:34:06.524Z,99741.84
2023-04-12T23:36:37.305Z,99739.28
2023-04-12T23:39:09.777Z,99738.38
2023-04-12T23:41:42.523Z,99738.47
2023-04-12T23:44:12.542Z,99736.34
2023-04-12T23:46:43.637Z,99734.63
2023-04-12T23:49:12.094Z,99742.59
2023-04-12T23:51:41.229Z,99748.13
2023-04-12T23:54:10.668Z,99742.47
2023-04-12T23:56:40.626Z,99744.00
2023-04-12T23:59:10.831Z,99748.44
